Terminal Aerodrome Forecast
Issued by NWS

Home | Current Version | Previous Version | Text Only | Print | Product List | Glossary On
Versions: 1 2 3 4 5 6 7 8 9 10 11 12 13 14
417
FTUS44 KCRP 012321
TAFLRD
TAF
KLRD 012321Z 0200/0224 09008KT P6SM BKN070
     FM020200 05012KT P6SM VCTS BKN030CB
      TEMPO 0203/0207 VRB20G30KT 5SM TSRA OVC020CB
     FM020700 02012KT P6SM OVC020
      TEMPO 0207/0211 5SM -TSRA OVC015CB
     FM021600 36012KT P6SM VCSH SCT009 OVC029=

USA.gov is the U.S. government's official web portal to all federal, state and local government web resources and services.